sensor_id;sensor_type;location;lat;lon;timestamp;P1;durP1;ratioP1;P2;durP2;ratioP2
75450;SDS011;64029;48.244;9.188;2024-02-26T00:00:21;9.77;;;5.40;;
75450;SDS011;64029;48.244;9.188;2024-02-26T00:02:50;12.23;;;6.30;;
75450;SDS011;64029;48.244;9.188;2024-02-26T00:05:17;9.43;;;5.50;;
75450;SDS011;64029;48.244;9.188;2024-02-26T00:07:44;8.13;;;4.60;;
75450;SDS011;64029;48.244;9.188;2024-02-26T00:10:10;6.03;;;3.97;;
75450;SDS011;64029;48.244;9.188;2024-02-26T00:12:37;3.90;;;3.50;;
75450;SDS011;64029;48.244;9.188;2024-02-26T00:15:05;2.97;;;2.63;;
75450;SDS011;64029;48.244;9.188;2024-02-26T00:17:32;4.30;;;3.17;;
75450;SDS011;64029;48.244;9.188;2024-02-26T00:20:00;3.20;;;2.60;;
75450;SDS011;64029;48.244;9.188;2024-02-26T00:22:29;6.40;;;3.50;;
75450;SDS011;64029;48.244;9.188;2024-02-26T00:24:56;5.20;;;3.10;;
75450;SDS011;64029;48.244;9.188;2024-02-26T00:27:23;4.63;;;2.87;;
75450;SDS011;64029;48.244;9.188;2024-02-26T00:29:49;3.73;;;2.50;;
75450;SDS011;64029;48.244;9.188;2024-02-26T00:32:16;6.10;;;2.70;;
75450;SDS011;64029;48.244;9.188;2024-02-26T00:34:43;2.23;;;1.90;;
75450;SDS011;64029;48.244;9.188;2024-02-26T00:37:11;4.63;;;2.90;;
75450;SDS011;64029;48.244;9.188;2024-02-26T00:39:38;3.47;;;2.40;;
75450;SDS011;64029;48.244;9.188;2024-02-26T00:42:05;6.80;;;3.10;;
75450;SDS011;64029;48.244;9.188;2024-02-26T00:44:32;6.77;;;4.80;;
75450;SDS011;64029;48.244;9.188;2024-02-26T00:46:59;4.60;;;3.50;;
75450;SDS011;64029;48.244;9.188;2024-02-26T00:49:26;3.70;;;2.60;;
75450;SDS011;64029;48.244;9.188;2024-02-26T00:51:53;5.37;;;2.63;;
75450;SDS011;64029;48.244;9.188;2024-02-26T00:54:21;3.60;;;2.40;;
75450;SDS011;64029;48.244;9.188;2024-02-26T00:56:47;3.83;;;2.47;;
75450;SDS011;64029;48.244;9.188;2024-02-26T00:59:14;2.10;;;1.90;;
75450;SDS011;64029;48.244;9.188;2024-02-26T01:01:41;2.70;;;2.13;;
75450;SDS011;64029;48.244;9.188;2024-02-26T01:04:08;2.33;;;2.10;;
75450;SDS011;64029;48.244;9.188;2024-02-26T01:06:35;2.57;;;2.23;;
75450;SDS011;64029;48.244;9.188;2024-02-26T01:09:01;10.23;;;6.00;;
75450;SDS011;64029;48.244;9.188;2024-02-26T01:11:30;13.60;;;6.77;;
75450;SDS011;64029;48.244;9.188;2024-02-26T01:13:56;13.20;;;6.37;;
75450;SDS011;64029;48.244;9.188;2024-02-26T01:16:23;6.70;;;4.80;;
75450;SDS011;64029;48.244;9.188;2024-02-26T01:18:49;6.83;;;4.70;;
75450;SDS011;64029;48.244;9.188;2024-02-26T01:21:16;10.47;;;4.57;;
75450;SDS011;64029;48.244;9.188;2024-02-26T01:23:43;8.70;;;5.03;;
75450;SDS011;64029;48.244;9.188;2024-02-26T01:26:10;8.87;;;5.37;;
75450;SDS011;64029;48.244;9.188;2024-02-26T01:28:38;8.50;;;4.33;;
75450;SDS011;64029;48.244;9.188;2024-02-26T01:31:05;6.43;;;4.20;;
75450;SDS011;64029;48.244;9.188;2024-02-26T01:33:33;6.13;;;3.73;;
75450;SDS011;64029;48.244;9.188;2024-02-26T01:36:00;4.77;;;3.03;;
75450;SDS011;64029;48.244;9.188;2024-02-26T01:38:28;4.90;;;3.17;;
75450;SDS011;64029;48.244;9.188;2024-02-26T01:40:55;4.80;;;3.33;;
75450;SDS011;64029;48.244;9.188;2024-02-26T01:43:21;2.57;;;2.00;;
75450;SDS011;64029;48.244;9.188;2024-02-26T01:45:50;4.43;;;2.23;;
75450;SDS011;64029;48.244;9.188;2024-02-26T01:48:17;4.37;;;3.30;;
75450;SDS011;64029;48.244;9.188;2024-02-26T01:50:44;5.17;;;2.97;;
75450;SDS011;64029;48.244;9.188;2024-02-26T01:53:10;8.13;;;3.20;;
75450;SDS011;64029;48.244;9.188;2024-02-26T01:55:38;5.30;;;4.17;;
75450;SDS011;64029;48.244;9.188;2024-02-26T01:58:06;8.40;;;5.33;;
75450;SDS011;64029;48.244;9.188;2024-02-26T02:00:34;10.20;;;6.40;;
75450;SDS011;64029;48.244;9.188;2024-02-26T02:03:02;7.13;;;5.37;;
75450;SDS011;64029;48.244;9.188;2024-02-26T02:05:30;10.80;;;5.90;;
75450;SDS011;64029;48.244;9.188;2024-02-26T02:07:58;6.37;;;4.30;;
75450;SDS011;64029;48.244;9.188;2024-02-26T02:10:28;9.13;;;5.63;;
75450;SDS011;64029;48.244;9.188;2024-02-26T02:12:55;5.50;;;4.20;;
75450;SDS011;64029;48.244;9.188;2024-02-26T02:15:22;5.30;;;3.77;;
75450;SDS011;64029;48.244;9.188;2024-02-26T02:17:49;8.27;;;4.53;;
75450;SDS011;64029;48.244;9.188;2024-02-26T02:20:18;5.60;;;3.90;;
75450;SDS011;64029;48.244;9.188;2024-02-26T02:22:47;6.87;;;3.50;;
75450;SDS011;64029;48.244;9.188;2024-02-26T02:25:14;5.10;;;3.47;;
75450;SDS011;64029;48.244;9.188;2024-02-26T02:27:41;4.63;;;2.00;;
75450;SDS011;64029;48.244;9.188;2024-02-26T02:30:09;2.97;;;2.27;;
75450;SDS011;64029;48.244;9.188;2024-02-26T02:32:37;3.93;;;2.53;;
75450;SDS011;64029;48.244;9.188;2024-02-26T02:35:06;4.57;;;3.23;;
75450;SDS011;64029;48.244;9.188;2024-02-26T02:37:33;6.63;;;3.40;;
75450;SDS011;64029;48.244;9.188;2024-02-26T02:40:02;7.27;;;3.53;;
75450;SDS011;64029;48.244;9.188;2024-02-26T02:42:30;5.20;;;3.70;;
75450;SDS011;64029;48.244;9.188;2024-02-26T02:44:57;3.90;;;2.63;;
75450;SDS011;64029;48.244;9.188;2024-02-26T02:47:24;4.37;;;2.97;;
75450;SDS011;64029;48.244;9.188;2024-02-26T02:49:51;5.90;;;3.47;;
75450;SDS011;64029;48.244;9.188;2024-02-26T02:52:17;4.23;;;3.43;;
75450;SDS011;64029;48.244;9.188;2024-02-26T02:54:44;6.47;;;3.87;;
75450;SDS011;64029;48.244;9.188;2024-02-26T02:57:13;9.23;;;4.07;;
75450;SDS011;64029;48.244;9.188;2024-02-26T02:59:40;6.30;;;4.10;;
75450;SDS011;64029;48.244;9.188;2024-02-26T03:02:07;7.00;;;3.60;;
75450;SDS011;64029;48.244;9.188;2024-02-26T03:04:34;6.73;;;3.90;;
75450;SDS011;64029;48.244;9.188;2024-02-26T03:07:00;4.57;;;3.13;;
75450;SDS011;64029;48.244;9.188;2024-02-26T03:09:27;6.57;;;3.60;;
75450;SDS011;64029;48.244;9.188;2024-02-26T03:11:54;5.40;;;3.63;;
75450;SDS011;64029;48.244;9.188;2024-02-26T03:14:22;4.67;;;2.90;;
75450;SDS011;64029;48.244;9.188;2024-02-26T03:16:52;3.77;;;3.00;;
75450;SDS011;64029;48.244;9.188;2024-02-26T03:19:20;6.87;;;3.70;;
75450;SDS011;64029;48.244;9.188;2024-02-26T03:21:46;4.83;;;3.23;;
75450;SDS011;64029;48.244;9.188;2024-02-26T03:24:13;5.50;;;3.80;;
75450;SDS011;64029;48.244;9.188;2024-02-26T03:26:40;4.80;;;3.00;;
75450;SDS011;64029;48.244;9.188;2024-02-26T03:29:07;5.07;;;3.13;;
75450;SDS011;64029;48.244;9.188;2024-02-26T03:31:35;6.00;;;3.03;;
75450;SDS011;64029;48.244;9.188;2024-02-26T03:34:02;4.47;;;3.00;;
75450;SDS011;64029;48.244;9.188;2024-02-26T03:36:28;4.00;;;2.80;;
75450;SDS011;64029;48.244;9.188;2024-02-26T03:38:55;5.43;;;2.80;;
75450;SDS011;64029;48.244;9.188;2024-02-26T03:41:22;5.70;;;3.20;;
75450;SDS011;64029;48.244;9.188;2024-02-26T03:43:49;2.90;;;2.33;;
75450;SDS011;64029;48.244;9.188;2024-02-26T03:46:16;5.17;;;3.30;;
75450;SDS011;64029;48.244;9.188;2024-02-26T03:48:44;5.10;;;2.80;;
75450;SDS011;64029;48.244;9.188;2024-02-26T03:51:10;5.97;;;3.00;;
75450;SDS011;64029;48.244;9.188;2024-02-26T03:53:37;3.50;;;3.20;;
75450;SDS011;64029;48.244;9.188;2024-02-26T03:56:05;5.03;;;3.60;;
75450;SDS011;64029;48.244;9.188;2024-02-26T03:58:32;4.10;;;3.07;;
75450;SDS011;64029;48.244;9.188;2024-02-26T04:00:59;3.40;;;3.00;;
75450;SDS011;64029;48.244;9.188;2024-02-26T04:03:26;4.40;;;3.30;;
75450;SDS011;64029;48.244;9.188;2024-02-26T04:05:54;3.50;;;3.10;;
75450;SDS011;64029;48.244;9.188;2024-02-26T04:08:21;4.17;;;3.27;;
75450;SDS011;64029;48.244;9.188;2024-02-26T04:10:49;5.37;;;3.07;;
75450;SDS011;64029;48.244;9.188;2024-02-26T04:13:16;4.43;;;2.87;;
75450;SDS011;64029;48.244;9.188;2024-02-26T04:15:44;4.17;;;3.33;;
75450;SDS011;64029;48.244;9.188;2024-02-26T04:18:11;4.20;;;2.57;;
75450;SDS011;64029;48.244;9.188;2024-02-26T04:20:39;5.17;;;3.30;;
75450;SDS011;64029;48.244;9.188;2024-02-26T04:23:08;5.80;;;3.83;;
75450;SDS011;64029;48.244;9.188;2024-02-26T04:25:35;6.17;;;3.80;;
75450;SDS011;64029;48.244;9.188;2024-02-26T04:28:02;6.00;;;3.50;;
75450;SDS011;64029;48.244;9.188;2024-02-26T04:30:29;4.07;;;3.30;;
75450;SDS011;64029;48.244;9.188;2024-02-26T04:32:56;4.90;;;2.40;;
75450;SDS011;64029;48.244;9.188;2024-02-26T04:35:23;3.07;;;2.60;;
75450;SDS011;64029;48.244;9.188;2024-02-26T04:37:49;4.50;;;2.43;;
75450;SDS011;64029;48.244;9.188;2024-02-26T04:40:17;2.70;;;2.47;;
75450;SDS011;64029;48.244;9.188;2024-02-26T04:42:44;3.10;;;2.77;;
75450;SDS011;64029;48.244;9.188;2024-02-26T04:45:11;3.90;;;2.67;;
75450;SDS011;64029;48.244;9.188;2024-02-26T04:47:38;3.43;;;2.63;;
75450;SDS011;64029;48.244;9.188;2024-02-26T04:50:05;3.40;;;2.87;;
75450;SDS011;64029;48.244;9.188;2024-02-26T04:52:33;4.60;;;3.00;;
75450;SDS011;64029;48.244;9.188;2024-02-26T04:54:59;5.63;;;3.40;;
75450;SDS011;64029;48.244;9.188;2024-02-26T04:57:27;5.67;;;3.40;;
75450;SDS011;64029;48.244;9.188;2024-02-26T04:59:54;7.80;;;4.80;;
75450;SDS011;64029;48.244;9.188;2024-02-26T05:02:21;7.00;;;4.70;;
75450;SDS011;64029;48.244;9.188;2024-02-26T05:04:49;6.77;;;5.10;;
75450;SDS011;64029;48.244;9.188;2024-02-26T05:07:16;6.30;;;4.60;;
75450;SDS011;64029;48.244;9.188;2024-02-26T05:09:43;4.03;;;3.43;;
75450;SDS011;64029;48.244;9.188;2024-02-26T05:12:10;6.73;;;5.07;;
75450;SDS011;64029;48.244;9.188;2024-02-26T05:14:38;8.67;;;6.80;;
75450;SDS011;64029;48.244;9.188;2024-02-26T05:17:05;8.30;;;6.47;;
75450;SDS011;64029;48.244;9.188;2024-02-26T05:19:32;9.20;;;5.83;;
75450;SDS011;64029;48.244;9.188;2024-02-26T05:21:59;4.43;;;3.27;;
75450;SDS011;64029;48.244;9.188;2024-02-26T05:24:26;2.90;;;2.63;;
75450;SDS011;64029;48.244;9.188;2024-02-26T05:26:53;2.80;;;2.50;;
75450;SDS011;64029;48.244;9.188;2024-02-26T05:29:20;3.07;;;2.80;;
75450;SDS011;64029;48.244;9.188;2024-02-26T05:31:49;2.93;;;2.57;;
75450;SDS011;64029;48.244;9.188;2024-02-26T05:34:15;3.17;;;2.93;;
75450;SDS011;64029;48.244;9.188;2024-02-26T05:36:42;2.63;;;2.43;;
75450;SDS011;64029;48.244;9.188;2024-02-26T05:39:09;3.67;;;3.10;;
75450;SDS011;64029;48.244;9.188;2024-02-26T05:41:37;3.43;;;2.90;;
75450;SDS011;64029;48.244;9.188;2024-02-26T05:44:04;3.40;;;3.10;;
75450;SDS011;64029;48.244;9.188;2024-02-26T05:46:30;5.37;;;3.30;;
75450;SDS011;64029;48.244;9.188;2024-02-26T05:48:59;4.60;;;3.50;;
75450;SDS011;64029;48.244;9.188;2024-02-26T05:51:25;3.83;;;3.40;;
75450;SDS011;64029;48.244;9.188;2024-02-26T05:53:52;3.23;;;3.00;;
75450;SDS011;64029;48.244;9.188;2024-02-26T05:56:20;3.80;;;2.87;;
75450;SDS011;64029;48.244;9.188;2024-02-26T05:58:47;5.73;;;3.20;;
75450;SDS011;64029;48.244;9.188;2024-02-26T06:01:15;4.27;;;3.00;;
75450;SDS011;64029;48.244;9.188;2024-02-26T06:03:42;3.50;;;2.63;;
75450;SDS011;64029;48.244;9.188;2024-02-26T06:06:10;3.53;;;2.87;;
75450;SDS011;64029;48.244;9.188;2024-02-26T06:08:37;3.83;;;2.80;;
75450;SDS011;64029;48.244;9.188;2024-02-26T06:11:04;4.07;;;2.27;;
75450;SDS011;64029;48.244;9.188;2024-02-26T06:13:32;2.97;;;2.57;;
75450;SDS011;64029;48.244;9.188;2024-02-26T06:15:59;5.57;;;3.27;;
75450;SDS011;64029;48.244;9.188;2024-02-26T06:18:26;4.50;;;3.77;;
75450;SDS011;64029;48.244;9.188;2024-02-26T06:20:53;11.53;;;5.70;;
75450;SDS011;64029;48.244;9.188;2024-02-26T06:23:21;11.23;;;5.87;;
75450;SDS011;64029;48.244;9.188;2024-02-26T06:25:49;14.87;;;6.30;;
75450;SDS011;64029;48.244;9.188;2024-02-26T06:28:16;7.87;;;5.40;;
75450;SDS011;64029;48.244;9.188;2024-02-26T06:30:43;12.00;;;7.40;;
75450;SDS011;64029;48.244;9.188;2024-02-26T06:33:09;12.20;;;6.00;;
75450;SDS011;64029;48.244;9.188;2024-02-26T06:35:37;8.97;;;5.30;;
75450;SDS011;64029;48.244;9.188;2024-02-26T06:38:04;8.40;;;4.90;;
75450;SDS011;64029;48.244;9.188;2024-02-26T06:40:32;11.47;;;7.23;;
75450;SDS011;64029;48.244;9.188;2024-02-26T06:42:59;11.13;;;7.23;;
75450;SDS011;64029;48.244;9.188;2024-02-26T06:45:26;16.90;;;8.10;;
75450;SDS011;64029;48.244;9.188;2024-02-26T06:47:53;8.53;;;5.30;;
75450;SDS011;64029;48.244;9.188;2024-02-26T06:50:20;8.33;;;5.13;;
75450;SDS011;64029;48.244;9.188;2024-02-26T06:52:47;7.10;;;4.40;;
75450;SDS011;64029;48.244;9.188;2024-02-26T06:55:14;7.43;;;5.00;;
75450;SDS011;64029;48.244;9.188;2024-02-26T06:57:42;7.17;;;4.63;;
75450;SDS011;64029;48.244;9.188;2024-02-26T07:00:10;6.90;;;3.87;;
75450;SDS011;64029;48.244;9.188;2024-02-26T07:02:40;4.97;;;3.70;;
75450;SDS011;64029;48.244;9.188;2024-02-26T07:05:07;7.80;;;4.17;;
75450;SDS011;64029;48.244;9.188;2024-02-26T07:07:35;4.50;;;3.30;;
75450;SDS011;64029;48.244;9.188;2024-02-26T07:10:02;4.07;;;3.30;;
75450;SDS011;64029;48.244;9.188;2024-02-26T07:12:30;3.50;;;3.20;;
75450;SDS011;64029;48.244;9.188;2024-02-26T07:14:58;5.20;;;3.57;;
75450;SDS011;64029;48.244;9.188;2024-02-26T07:17:25;3.90;;;3.20;;
75450;SDS011;64029;48.244;9.188;2024-02-26T07:19:52;5.57;;;4.13;;
75450;SDS011;64029;48.244;9.188;2024-02-26T07:22:19;10.80;;;5.37;;
75450;SDS011;64029;48.244;9.188;2024-02-26T07:24:46;14.00;;;7.87;;
75450;SDS011;64029;48.244;9.188;2024-02-26T07:27:13;9.03;;;6.23;;
75450;SDS011;64029;48.244;9.188;2024-02-26T07:29:42;18.17;;;8.10;;
75450;SDS011;64029;48.244;9.188;2024-02-26T07:32:10;10.13;;;6.97;;
75450;SDS011;64029;48.244;9.188;2024-02-26T07:34:37;11.80;;;6.13;;
75450;SDS011;64029;48.244;9.188;2024-02-26T07:37:06;6.83;;;4.73;;
75450;SDS011;64029;48.244;9.188;2024-02-26T07:39:33;7.07;;;4.77;;
75450;SDS011;64029;48.244;9.188;2024-02-26T07:42:00;7.30;;;4.53;;
75450;SDS011;64029;48.244;9.188;2024-02-26T07:44:27;5.20;;;3.37;;
75450;SDS011;64029;48.244;9.188;2024-02-26T07:46:54;7.90;;;3.87;;
75450;SDS011;64029;48.244;9.188;2024-02-26T07:49:22;5.33;;;3.63;;
75450;SDS011;64029;48.244;9.188;2024-02-26T07:51:49;5.70;;;3.40;;
75450;SDS011;64029;48.244;9.188;2024-02-26T07:54:15;5.83;;;4.70;;
75450;SDS011;64029;48.244;9.188;2024-02-26T07:56:44;8.40;;;5.80;;
75450;SDS011;64029;48.244;9.188;2024-02-26T07:59:11;6.00;;;3.90;;
75450;SDS011;64029;48.244;9.188;2024-02-26T08:01:38;10.40;;;6.57;;
75450;SDS011;64029;48.244;9.188;2024-02-26T08:04:06;9.30;;;7.17;;
75450;SDS011;64029;48.244;9.188;2024-02-26T08:06:34;8.03;;;6.03;;
75450;SDS011;64029;48.244;9.188;2024-02-26T08:09:01;11.77;;;6.17;;
75450;SDS011;64029;48.244;9.188;2024-02-26T08:11:29;10.53;;;6.17;;
75450;SDS011;64029;48.244;9.188;2024-02-26T08:13:56;6.70;;;5.37;;
75450;SDS011;64029;48.244;9.188;2024-02-26T08:16:24;9.80;;;7.17;;
75450;SDS011;64029;48.244;9.188;2024-02-26T08:18:51;10.90;;;8.03;;
75450;SDS011;64029;48.244;9.188;2024-02-26T08:21:17;9.53;;;6.80;;
75450;SDS011;64029;48.244;9.188;2024-02-26T08:23:46;10.53;;;6.67;;
75450;SDS011;64029;48.244;9.188;2024-02-26T08:26:12;9.40;;;6.60;;
75450;SDS011;64029;48.244;9.188;2024-02-26T08:28:39;13.13;;;6.70;;
75450;SDS011;64029;48.244;9.188;2024-02-26T08:31:06;8.00;;;5.87;;
75450;SDS011;64029;48.244;9.188;2024-02-26T08:33:33;6.53;;;5.53;;
75450;SDS011;64029;48.244;9.188;2024-02-26T08:36:03;9.87;;;5.90;;
75450;SDS011;64029;48.244;9.188;2024-02-26T08:38:30;9.50;;;6.53;;
75450;SDS011;64029;48.244;9.188;2024-02-26T08:41:01;9.10;;;6.60;;
75450;SDS011;64029;48.244;9.188;2024-02-26T08:43:28;8.50;;;5.67;;
75450;SDS011;64029;48.244;9.188;2024-02-26T08:45:55;6.40;;;5.50;;
75450;SDS011;64029;48.244;9.188;2024-02-26T08:48:23;8.97;;;5.83;;
75450;SDS011;64029;48.244;9.188;2024-02-26T08:50:49;9.40;;;6.83;;
75450;SDS011;64029;48.244;9.188;2024-02-26T08:53:16;10.50;;;6.60;;
75450;SDS011;64029;48.244;9.188;2024-02-26T08:55:43;8.27;;;6.10;;
75450;SDS011;64029;48.244;9.188;2024-02-26T08:58:11;10.73;;;6.80;;
75450;SDS011;64029;48.244;9.188;2024-02-26T09:00:38;19.87;;;9.80;;
75450;SDS011;64029;48.244;9.188;2024-02-26T09:03:05;13.90;;;8.03;;
75450;SDS011;64029;48.244;9.188;2024-02-26T09:05:32;13.23;;;8.80;;
75450;SDS011;64029;48.244;9.188;2024-02-26T09:07:59;13.23;;;8.67;;
75450;SDS011;64029;48.244;9.188;2024-02-26T09:10:25;13.43;;;7.10;;
75450;SDS011;64029;48.244;9.188;2024-02-26T09:12:52;11.80;;;7.67;;
75450;SDS011;64029;48.244;9.188;2024-02-26T09:15:21;10.80;;;7.20;;
75450;SDS011;64029;48.244;9.188;2024-02-26T09:17:48;10.03;;;6.63;;
75450;SDS011;64029;48.244;9.188;2024-02-26T09:20:17;6.97;;;5.63;;
75450;SDS011;64029;48.244;9.188;2024-02-26T09:22:45;10.00;;;5.00;;
75450;SDS011;64029;48.244;9.188;2024-02-26T09:25:12;6.20;;;4.50;;
75450;SDS011;64029;48.244;9.188;2024-02-26T09:27:40;6.17;;;3.80;;
75450;SDS011;64029;48.244;9.188;2024-02-26T09:30:08;6.07;;;3.70;;
75450;SDS011;64029;48.244;9.188;2024-02-26T09:32:37;5.90;;;3.60;;
75450;SDS011;64029;48.244;9.188;2024-02-26T09:35:04;6.10;;;4.40;;
75450;SDS011;64029;48.244;9.188;2024-02-26T09:37:31;9.93;;;5.77;;
75450;SDS011;64029;48.244;9.188;2024-02-26T09:40:01;7.17;;;4.30;;
75450;SDS011;64029;48.244;9.188;2024-02-26T09:42:29;4.87;;;3.47;;
75450;SDS011;64029;48.244;9.188;2024-02-26T09:44:59;4.50;;;3.00;;
75450;SDS011;64029;48.244;9.188;2024-02-26T09:47:28;3.87;;;2.80;;
75450;SDS011;64029;48.244;9.188;2024-02-26T09:49:59;5.27;;;3.20;;
75450;SDS011;64029;48.244;9.188;2024-02-26T09:52:27;2.73;;;2.43;;
75450;SDS011;64029;48.244;9.188;2024-02-26T09:54:57;8.43;;;3.10;;
75450;SDS011;64029;48.244;9.188;2024-02-26T09:57:23;3.20;;;2.70;;
75450;SDS011;64029;48.244;9.188;2024-02-26T09:59:52;2.93;;;2.30;;
75450;SDS011;64029;48.244;9.188;2024-02-26T10:02:20;6.63;;;3.10;;
75450;SDS011;64029;48.244;9.188;2024-02-26T10:04:47;1.87;;;1.73;;
75450;SDS011;64029;48.244;9.188;2024-02-26T10:07:17;5.00;;;2.13;;
75450;SDS011;64029;48.244;9.188;2024-02-26T10:09:44;3.30;;;1.90;;
75450;SDS011;64029;48.244;9.188;2024-02-26T10:12:11;3.77;;;2.00;;
75450;SDS011;64029;48.244;9.188;2024-02-26T10:14:40;2.50;;;1.80;;
75450;SDS011;64029;48.244;9.188;2024-02-26T10:17:07;3.13;;;1.73;;
75450;SDS011;64029;48.244;9.188;2024-02-26T10:19:34;2.60;;;1.50;;
75450;SDS011;64029;48.244;9.188;2024-02-26T10:22:02;4.33;;;1.60;;
75450;SDS011;64029;48.244;9.188;2024-02-26T10:24:30;2.10;;;1.60;;
75450;SDS011;64029;48.244;9.188;2024-02-26T10:26:57;1.80;;;1.43;;
75450;SDS011;64029;48.244;9.188;2024-02-26T10:29:25;2.60;;;1.67;;
75450;SDS011;64029;48.244;9.188;2024-02-26T10:31:52;2.13;;;1.73;;
75450;SDS011;64029;48.244;9.188;2024-02-26T10:34:20;1.60;;;1.33;;
75450;SDS011;64029;48.244;9.188;2024-02-26T10:36:47;3.87;;;1.50;;
75450;SDS011;64029;48.244;9.188;2024-02-26T10:39:14;2.10;;;1.20;;
75450;SDS011;64029;48.244;9.188;2024-02-26T10:41:43;1.50;;;1.40;;
75450;SDS011;64029;48.244;9.188;2024-02-26T10:44:11;3.47;;;1.30;;
75450;SDS011;64029;48.244;9.188;2024-02-26T10:46:38;1.40;;;1.20;;
75450;SDS011;64029;48.244;9.188;2024-02-26T10:49:12;1.40;;;1.30;;
75450;SDS011;64029;48.244;9.188;2024-02-26T10:51:40;1.33;;;1.10;;
75450;SDS011;64029;48.244;9.188;2024-02-26T10:54:11;0.83;;;0.77;;
75450;SDS011;64029;48.244;9.188;2024-02-26T10:56:43;1.90;;;1.10;;
75450;SDS011;64029;48.244;9.188;2024-02-26T10:59:12;2.10;;;1.07;;
75450;SDS011;64029;48.244;9.188;2024-02-26T11:01:40;2.43;;;1.20;;
75450;SDS011;64029;48.244;9.188;2024-02-26T11:04:11;1.80;;;1.20;;
75450;SDS011;64029;48.244;9.188;2024-02-26T11:06:39;1.10;;;1.00;;
75450;SDS011;64029;48.244;9.188;2024-02-26T11:09:06;1.53;;;1.17;;
75450;SDS011;64029;48.244;9.188;2024-02-26T11:11:37;2.97;;;1.13;;
75450;SDS011;64029;48.244;9.188;2024-02-26T11:14:06;1.77;;;1.17;;
75450;SDS011;64029;48.244;9.188;2024-02-26T11:16:35;2.03;;;1.00;;
75450;SDS011;64029;48.244;9.188;2024-02-26T11:19:05;1.20;;;1.10;;
75450;SDS011;64029;48.244;9.188;2024-02-26T11:21:33;1.43;;;1.00;;
75450;SDS011;64029;48.244;9.188;2024-02-26T11:24:06;1.37;;;0.93;;
75450;SDS011;64029;48.244;9.188;2024-02-26T11:26:35;2.50;;;1.03;;
75450;SDS011;64029;48.244;9.188;2024-02-26T11:29:07;1.73;;;1.23;;
75450;SDS011;64029;48.244;9.188;2024-02-26T11:31:36;1.30;;;1.03;;
75450;SDS011;64029;48.244;9.188;2024-02-26T11:34:04;3.63;;;1.10;;
75450;SDS011;64029;48.244;9.188;2024-02-26T11:36:32;1.53;;;1.10;;
75450;SDS011;64029;48.244;9.188;2024-02-26T11:38:59;3.60;;;1.17;;
75450;SDS011;64029;48.244;9.188;2024-02-26T11:41:26;5.43;;;1.37;;
75450;SDS011;64029;48.244;9.188;2024-02-26T11:43:57;2.00;;;1.10;;
75450;SDS011;64029;48.244;9.188;2024-02-26T11:46:27;1.70;;;1.10;;
75450;SDS011;64029;48.244;9.188;2024-02-26T11:48:58;1.63;;;1.23;;
75450;SDS011;64029;48.244;9.188;2024-02-26T11:51:26;1.80;;;0.93;;
75450;SDS011;64029;48.244;9.188;2024-02-26T11:53:54;1.53;;;0.90;;
75450;SDS011;64029;48.244;9.188;2024-02-26T11:56:23;1.03;;;0.90;;
75450;SDS011;64029;48.244;9.188;2024-02-26T11:58:58;1.17;;;1.07;;
75450;SDS011;64029;48.244;9.188;2024-02-26T12:01:37;2.57;;;1.27;;
75450;SDS011;64029;48.244;9.188;2024-02-26T12:04:14;1.13;;;1.03;;
75450;SDS011;64029;48.244;9.188;2024-02-26T12:06:43;1.23;;;1.00;;
75450;SDS011;64029;48.244;9.188;2024-02-26T12:09:11;2.27;;;0.97;;
75450;SDS011;64029;48.244;9.188;2024-02-26T12:11:39;2.90;;;1.10;;
75450;SDS011;64029;48.244;9.188;2024-02-26T12:14:07;2.63;;;1.10;;
75450;SDS011;64029;48.244;9.188;2024-02-26T12:16:36;1.23;;;0.90;;
75450;SDS011;64029;48.244;9.188;2024-02-26T12:19:05;1.60;;;1.20;;
75450;SDS011;64029;48.244;9.188;2024-02-26T12:21:33;1.60;;;0.93;;
75450;SDS011;64029;48.244;9.188;2024-02-26T12:24:09;1.27;;;1.10;;
75450;SDS011;64029;48.244;9.188;2024-02-26T12:26:37;1.40;;;1.10;;
75450;SDS011;64029;48.244;9.188;2024-02-26T12:29:04;1.60;;;1.17;;
75450;SDS011;64029;48.244;9.188;2024-02-26T12:31:31;7.80;;;1.30;;
75450;SDS011;64029;48.244;9.188;2024-02-26T12:34:00;1.33;;;1.10;;
75450;SDS011;64029;48.244;9.188;2024-02-26T12:36:27;1.40;;;1.20;;
75450;SDS011;64029;48.244;9.188;2024-02-26T12:38:53;1.67;;;1.23;;
75450;SDS011;64029;48.244;9.188;2024-02-26T12:41:21;1.40;;;1.30;;
75450;SDS011;64029;48.244;9.188;2024-02-26T12:43:48;2.13;;;1.20;;
75450;SDS011;64029;48.244;9.188;2024-02-26T12:46:15;2.77;;;1.20;;
75450;SDS011;64029;48.244;9.188;2024-02-26T12:48:42;2.63;;;1.50;;
75450;SDS011;64029;48.244;9.188;2024-02-26T12:51:11;1.60;;;1.27;;
75450;SDS011;64029;48.244;9.188;2024-02-26T12:53:40;1.93;;;1.47;;
75450;SDS011;64029;48.244;9.188;2024-02-26T12:56:07;1.63;;;1.17;;
75450;SDS011;64029;48.244;9.188;2024-02-26T12:58:35;1.73;;;1.20;;
75450;SDS011;64029;48.244;9.188;2024-02-26T13:01:03;1.43;;;0.93;;
75450;SDS011;64029;48.244;9.188;2024-02-26T13:03:31;1.40;;;1.20;;
75450;SDS011;64029;48.244;9.188;2024-02-26T13:05:58;2.87;;;1.00;;
75450;SDS011;64029;48.244;9.188;2024-02-26T13:08:27;1.07;;;0.90;;
75450;SDS011;64029;48.244;9.188;2024-02-26T13:10:54;1.83;;;1.00;;
75450;SDS011;64029;48.244;9.188;2024-02-26T13:13:20;1.93;;;1.00;;
75450;SDS011;64029;48.244;9.188;2024-02-26T13:15:48;0.90;;;0.70;;
75450;SDS011;64029;48.244;9.188;2024-02-26T13:18:15;0.90;;;0.70;;
75450;SDS011;64029;48.244;9.188;2024-02-26T13:20:42;2.30;;;0.90;;
75450;SDS011;64029;48.244;9.188;2024-02-26T13:23:11;1.83;;;1.00;;
75450;SDS011;64029;48.244;9.188;2024-02-26T13:25:40;1.33;;;1.00;;
75450;SDS011;64029;48.244;9.188;2024-02-26T13:28:08;1.67;;;1.57;;
75450;SDS011;64029;48.244;9.188;2024-02-26T13:30:35;1.20;;;1.10;;
75450;SDS011;64029;48.244;9.188;2024-02-26T13:33:09;1.00;;;0.90;;
75450;SDS011;64029;48.244;9.188;2024-02-26T13:35:36;1.10;;;1.00;;
75450;SDS011;64029;48.244;9.188;2024-02-26T13:38:04;1.20;;;1.10;;
75450;SDS011;64029;48.244;9.188;2024-02-26T13:40:31;0.90;;;0.80;;
75450;SDS011;64029;48.244;9.188;2024-02-26T13:42:59;0.83;;;0.70;;
75450;SDS011;64029;48.244;9.188;2024-02-26T13:45:26;1.00;;;0.70;;
75450;SDS011;64029;48.244;9.188;2024-02-26T13:47:53;1.80;;;0.73;;
75450;SDS011;64029;48.244;9.188;2024-02-26T13:50:27;0.80;;;0.70;;
75450;SDS011;64029;48.244;9.188;2024-02-26T13:52:53;1.20;;;0.80;;
75450;SDS011;64029;48.244;9.188;2024-02-26T13:55:21;0.80;;;0.70;;
75450;SDS011;64029;48.244;9.188;2024-02-26T13:57:51;0.90;;;0.70;;
75450;SDS011;64029;48.244;9.188;2024-02-26T14:00:20;1.03;;;0.77;;
75450;SDS011;64029;48.244;9.188;2024-02-26T14:02:47;1.57;;;0.80;;
75450;SDS011;64029;48.244;9.188;2024-02-26T14:05:14;1.33;;;0.60;;
75450;SDS011;64029;48.244;9.188;2024-02-26T14:07:41;1.13;;;0.77;;
75450;SDS011;64029;48.244;9.188;2024-02-26T14:10:08;1.60;;;0.90;;
75450;SDS011;64029;48.244;9.188;2024-02-26T14:12:37;1.10;;;0.77;;
75450;SDS011;64029;48.244;9.188;2024-02-26T14:15:06;3.20;;;0.80;;
75450;SDS011;64029;48.244;9.188;2024-02-26T14:17:35;1.07;;;0.90;;
75450;SDS011;64029;48.244;9.188;2024-02-26T14:20:02;5.37;;;1.00;;
75450;SDS011;64029;48.244;9.188;2024-02-26T14:22:29;2.63;;;1.00;;
75450;SDS011;64029;48.244;9.188;2024-02-26T14:24:56;4.70;;;1.10;;
75450;SDS011;64029;48.244;9.188;2024-02-26T14:27:24;3.10;;;0.90;;
75450;SDS011;64029;48.244;9.188;2024-02-26T14:29:51;2.30;;;1.20;;
75450;SDS011;64029;48.244;9.188;2024-02-26T14:32:18;1.50;;;1.20;;
75450;SDS011;64029;48.244;9.188;2024-02-26T14:34:46;1.60;;;1.10;;
75450;SDS011;64029;48.244;9.188;2024-02-26T14:37:13;1.60;;;1.30;;
75450;SDS011;64029;48.244;9.188;2024-02-26T14:39:40;1.50;;;1.30;;
75450;SDS011;64029;48.244;9.188;2024-02-26T14:42:07;1.43;;;1.33;;
75450;SDS011;64029;48.244;9.188;2024-02-26T14:44:34;1.30;;;1.10;;
75450;SDS011;64029;48.244;9.188;2024-02-26T14:47:00;2.57;;;1.47;;